Time;durP1;ratioP1;P1;durP2;ratioP2;P2;SDS_P1;SDS_P2;PMS_P1;PMS_P2;Temp;Humidity;BMP_temperature;BMP_pressure;BME280_temperature;BME280_humidity;BME280_pressure;Samples;Min_cycle;Max_cycle;Signal;HPM_P1;HPM_P2
2023/03/12 00:01:43;;;;;;;4.07;2.78;;;;;;;4.63;51.10;94070.16;5121689;27;20212;-77
2023/03/12 00:04:11;;;;;;;2.90;2.70;;;;;;;4.57;51.11;94077.78;5121920;27;20583;-77
2023/03/12 00:06:38;;;;;;;3.03;2.72;;;;;;;4.56;50.98;94078.91;5122427;27;20191;-77
2023/03/12 00:09:05;;;;;;;4.03;2.92;;;;;;;4.56;50.90;94074.25;5139685;27;20205;-77
2023/03/12 00:11:33;;;;;;;3.35;2.92;;;;;;;4.58;50.70;94082.13;5139514;27;20187;-77
2023/03/12 00:14:00;;;;;;;3.08;2.83;;;;;;;4.53;51.16;94080.38;5139407;27;20179;-77
2023/03/12 00:16:28;;;;;;;3.13;2.83;;;;;;;4.51;50.98;94090.06;5121700;27;20229;-77
2023/03/12 00:18:56;;;;;;;3.13;2.90;;;;;;;4.49;51.00;94086.88;5121465;27;20191;-77
2023/03/12 00:21:23;;;;;;;3.92;3.00;;;;;;;4.45;51.21;94100.41;5121598;27;20626;-77
2023/03/12 00:23:50;;;;;;;4.28;3.35;;;;;;;4.44;51.43;94081.63;5121036;27;20207;-77
2023/03/12 00:26:18;;;;;;;3.38;3.17;;;;;;;4.42;51.52;94098.34;5119648;27;20334;-77
2023/03/12 00:28:47;;;;;;;4.22;3.80;;;;;;;4.42;51.19;94094.81;5121202;27;20195;-77
2023/03/12 00:31:16;;;;;;;3.70;3.40;;;;;;;4.28;51.53;94095.91;5121162;27;20206;-77
2023/03/12 00:33:43;;;;;;;3.65;3.13;;;;;;;4.26;51.62;94092.72;5139133;27;20202;-77
2023/03/12 00:36:10;;;;;;;3.60;3.30;;;;;;;4.23;51.95;94085.22;5138627;27;20218;-77
2023/03/12 00:38:37;;;;;;;3.47;3.15;;;;;;;4.28;51.44;94084.19;5139517;27;20244;-77
2023/03/12 00:41:04;;;;;;;3.67;3.40;;;;;;;4.25;51.48;94079.44;5138935;27;20191;-77
2023/03/12 00:43:32;;;;;;;3.63;3.08;;;;;;;4.22;51.65;94088.28;5117474;28;20232;-77
2023/03/12 00:46:01;;;;;;;4.03;3.00;;;;;;;4.20;51.63;94082.34;5117445;28;20191;-77
2023/03/12 00:48:28;;;;;;;3.50;3.20;;;;;;;4.12;51.76;94085.97;5117599;28;20202;-77
2023/03/12 00:50:55;;;;;;;3.53;3.22;;;;;;;4.13;52.06;94087.56;5117847;28;20306;-77
2023/03/12 00:53:22;;;;;;;3.50;3.20;;;;;;;4.12;52.01;94092.22;5117897;28;20210;-77
2023/03/12 00:55:49;;;;;;;3.28;2.97;;;;;;;4.07;51.98;94087.78;5117228;28;20219;-77
2023/03/12 00:58:16;;;;;;;3.13;2.90;;;;;;;4.07;52.33;94095.16;5117977;28;20207;-77
2023/03/12 01:00:43;;;;;;;3.70;3.40;;;;;;;4.09;52.02;94098.34;5117382;28;20203;-77
2023/03/12 01:03:11;;;;;;;3.42;3.20;;;;;;;4.00;52.34;94095.72;5118509;28;20198;-77
2023/03/12 01:05:39;;;;;;;3.33;3.05;;;;;;;3.91;52.10;94099.63;5117194;28;20192;-77
2023/03/12 01:08:07;;;;;;;3.40;3.20;;;;;;;3.94;52.83;94104.44;5116694;28;20188;-77
2023/03/12 01:10:34;;;;;;;3.47;3.08;;;;;;;3.99;52.27;94105.00;5117779;28;20262;-77
2023/03/12 01:13:00;;;;;;;3.10;2.90;;;;;;;3.95;52.49;94106.81;5117492;28;20197;-77
2023/03/12 01:15:28;;;;;;;3.13;2.88;;;;;;;3.93;52.85;94113.75;5116943;28;20200;-77
2023/03/12 01:17:55;;;;;;;3.05;2.75;;;;;;;3.83;53.16;94120.41;5116769;28;20220;-77
2023/03/12 01:20:23;;;;;;;3.05;2.88;;;;;;;3.81;53.26;94114.47;5117500;28;20196;-78
2023/03/12 01:22:50;;;;;;;3.50;3.20;;;;;;;3.86;53.01;94122.47;5117497;28;20200;-77
2023/03/12 01:25:17;;;;;;;3.20;3.00;;;;;;;3.84;52.90;94122.78;5118237;28;20184;-77
2023/03/12 01:27:44;;;;;;;3.88;3.00;;;;;;;3.86;53.15;94130.66;5117682;28;20198;-78
2023/03/12 01:30:12;;;;;;;3.65;3.35;;;;;;;3.85;53.31;94126.34;5116987;28;20196;-77
2023/03/12 01:32:39;;;;;;;4.38;3.42;;;;;;;3.82;53.09;94132.44;5117679;28;20183;-78
2023/03/12 01:35:06;;;;;;;3.20;3.00;;;;;;;3.78;52.81;94131.53;5117097;28;20206;-78
2023/03/12 01:37:35;;;;;;;5.15;3.05;;;;;;;3.71;53.55;94125.81;5117194;28;20208;-78
2023/03/12 01:40:04;;;;;;;3.05;2.85;;;;;;;3.74;53.24;94128.66;5117256;28;20180;-77
2023/03/12 01:42:31;;;;;;;4.32;2.92;;;;;;;3.77;53.45;94121.72;5116696;28;20231;-78
2023/03/12 01:44:59;;;;;;;3.40;3.10;;;;;;;3.81;53.37;94122.66;5116273;28;20203;-77
2023/03/12 01:47:27;;;;;;;3.50;3.10;;;;;;;3.83;53.38;94123.94;5117470;28;20179;-77
2023/03/12 01:49:55;;;;;;;3.50;3.20;;;;;;;3.88;53.12;94117.47;5117120;28;20196;-77
2023/03/12 01:52:25;;;;;;;3.30;3.00;;;;;;;3.91;52.77;94111.34;5116434;28;20207;-78
2023/03/12 01:54:57;;;;;;;4.97;3.00;;;;;;;3.91;52.75;94114.06;5117972;28;20196;-78
2023/03/12 01:57:29;;;;;;;4.32;3.15;;;;;;;3.92;53.36;94104.78;5116863;28;20215;-78
2023/03/12 01:59:58;;;;;;;3.50;3.20;;;;;;;3.95;53.00;94106.00;5116335;28;20191;-78
2023/03/12 02:02:27;;;;;;;3.20;3.00;;;;;;;3.91;53.02;94102.38;5117647;28;20525;-77
2023/03/12 02:05:00;;;;;;;3.72;3.42;;;;;;;3.88;53.04;94100.31;5120682;28;20200;-78
2023/03/12 02:07:27;;;;;;;3.28;2.97;;;;;;;3.90;53.01;94109.75;5124073;28;20199;-78
2023/03/12 02:09:55;;;;;;;3.05;2.85;;;;;;;3.93;52.99;94111.03;5117620;28;20619;-77
2023/03/12 02:12:22;;;;;;;2.97;2.78;;;;;;;3.92;52.58;94115.69;5115754;28;20203;-77
2023/03/12 02:14:49;;;;;;;2.92;2.65;;;;;;;3.81;52.67;94109.00;5115493;28;20199;-77
2023/03/12 02:17:16;;;;;;;3.20;3.00;;;;;;;3.81;53.41;94123.47;5116103;28;20211;-77
2023/03/12 02:19:50;;;;;;;2.92;2.72;;;;;;;3.79;53.17;94114.03;5116125;28;20218;-77
2023/03/12 02:22:17;;;;;;;2.92;2.70;;;;;;;3.82;53.10;94127.78;5115882;28;20203;-77
2023/03/12 02:24:47;;;;;;;3.83;3.00;;;;;;;3.77;53.44;94125.25;5098962;28;20203;-77
2023/03/12 02:27:17;;;;;;;3.28;3.08;;;;;;;3.83;52.77;94120.41;5115957;28;20238;-77
2023/03/12 02:29:45;;;;;;;3.65;3.10;;;;;;;3.84;53.05;94125.50;5115799;28;20198;-77
2023/03/12 02:32:17;;;;;;;3.28;3.08;;;;;;;3.83;53.21;94123.94;5116057;28;20203;-78
2023/03/12 02:34:44;;;;;;;3.20;3.00;;;;;;;3.81;53.36;94128.09;5115364;28;20195;-78
2023/03/12 02:37:11;;;;;;;2.88;2.70;;;;;;;3.82;53.60;94130.53;5116851;28;20207;-77
2023/03/12 02:39:39;;;;;;;3.13;2.80;;;;;;;3.84;53.57;94139.16;5116192;28;20203;-78
2023/03/12 02:42:06;;;;;;;3.00;2.67;;;;;;;3.86;53.50;94142.34;5116782;28;20196;-78
2023/03/12 02:44:36;;;;;;;3.05;2.88;;;;;;;3.85;53.07;94148.16;5119682;27;20191;-78
2023/03/12 02:47:03;;;;;;;3.03;2.83;;;;;;;3.85;53.25;94143.50;5119215;27;20206;-77
2023/03/12 02:49:32;;;;;;;3.13;2.92;;;;;;;3.82;53.26;94144.16;5135782;27;20232;-77
2023/03/12 02:51:59;;;;;;;3.45;2.88;;;;;;;3.81;53.77;94144.47;5136808;27;20266;-77
2023/03/12 02:54:26;;;;;;;3.50;3.20;;;;;;;3.75;53.65;94151.28;5118525;27;20210;-77
2023/03/12 02:56:53;;;;;;;3.30;3.10;;;;;;;3.75;54.37;94160.25;5118394;28;20222;-77
2023/03/12 02:59:38;;;;;;;3.42;3.10;;;;;;;3.79;54.03;94163.91;5118793;28;20285;-77
2023/03/12 03:02:08;;;;;;;3.28;3.05;;;;;;;3.81;53.82;94169.03;5118316;28;20191;-78
2023/03/12 03:04:35;;;;;;;3.30;3.10;;;;;;;3.77;54.29;94165.38;5119092;28;20195;-77
2023/03/12 03:07:02;;;;;;;3.70;3.40;;;;;;;3.77;53.94;94157.19;5118668;28;20191;-78
2023/03/12 03:09:29;;;;;;;3.40;3.20;;;;;;;3.76;54.09;94158.31;5118189;28;20198;-77
2023/03/12 03:11:56;;;;;;;3.28;3.08;;;;;;;3.73;53.90;94162.50;5118424;28;20559;-78
2023/03/12 03:14:23;;;;;;;3.50;3.20;;;;;;;3.71;53.95;94163.97;5136872;28;20191;-77
2023/03/12 03:16:50;;;;;;;3.03;2.60;;;;;;;3.70;53.91;94160.44;5118495;28;20584;-78
2023/03/12 03:19:19;;;;;;;3.17;2.85;;;;;;;3.67;54.11;94163.03;5118693;28;20207;-78
2023/03/12 03:21:46;;;;;;;2.90;2.70;;;;;;;3.64;53.23;94167.22;5136771;28;20183;-78
2023/03/12 03:24:13;;;;;;;2.97;2.75;;;;;;;3.49;53.20;94165.88;5118953;28;20187;-78
2023/03/12 03:26:39;;;;;;;3.08;2.50;;;;;;;3.54;53.79;94171.13;5119180;28;20191;-77
2023/03/12 03:29:07;;;;;;;3.08;2.78;;;;;;;3.58;53.23;94179.44;5118515;28;20191;-77
2023/03/12 03:31:34;;;;;;;2.92;2.70;;;;;;;3.59;52.97;94175.59;5136125;28;20191;-77
2023/03/12 03:34:00;;;;;;;2.90;2.70;;;;;;;3.64;52.87;94185.53;5119197;28;20578;-78
2023/03/12 03:36:29;;;;;;;3.40;2.65;;;;;;;3.59;53.15;94186.50;5119166;28;20202;-78
2023/03/12 03:38:56;;;;;;;3.13;2.72;;;;;;;3.55;53.02;94180.09;5118728;28;20199;-78
2023/03/12 03:41:23;;;;;;;2.90;2.70;;;;;;;3.56;52.27;94179.00;5118478;28;20256;-78
2023/03/12 03:43:50;;;;;;;3.05;2.85;;;;;;;3.55;52.75;94175.44;5119257;28;20231;-78
2023/03/12 03:46:16;;;;;;;3.33;2.58;;;;;;;3.52;52.12;94178.03;5119173;28;20195;-78
2023/03/12 03:48:43;;;;;;;3.33;3.00;;;;;;;3.45;52.65;94183.22;5118872;28;20622;-78
2023/03/12 03:51:11;;;;;;;3.55;3.25;;;;;;;3.40;52.42;94189.66;5119226;28;20230;-79
2023/03/12 03:53:40;;;;;;;2.80;2.60;;;;;;;3.37;52.70;94195.75;5119314;28;20195;-77
2023/03/12 03:56:08;;;;;;;2.65;2.45;;;;;;;3.37;52.53;94199.28;5120028;28;20214;-78
2023/03/12 03:58:35;;;;;;;2.60;2.40;;;;;;;3.35;51.65;94203.47;5138681;28;20206;-78
2023/03/12 04:01:02;;;;;;;2.70;2.50;;;;;;;3.33;52.39;94211.97;5120307;27;20195;-77
2023/03/12 04:03:30;;;;;;;2.70;2.50;;;;;;;3.34;52.12;94213.59;5121943;27;20659;-77
2023/03/12 04:05:58;;;;;;;2.50;2.40;;;;;;;3.31;51.95;94211.50;5139868;27;20232;-77
2023/03/12 04:08:25;;;;;;;3.15;2.70;;;;;;;3.31;52.34;94221.63;5140051;27;20228;-77
2023/03/12 04:10:55;;;;;;;3.17;2.88;;;;;;;3.28;51.52;94220.34;5121729;27;20199;-77
2023/03/12 04:13:43;;;;;;;2.67;2.30;;;;;;;3.14;51.32;94214.31;5137355;27;20199;-77
2023/03/12 04:16:12;;;;;;;2.72;2.53;;;;;;;3.12;51.05;94238.34;5121040;27;20187;-77
2023/03/12 04:18:50;;;;;;;2.67;2.47;;;;;;;3.13;50.02;94237.25;5120880;27;20317;-77
2023/03/12 04:21:18;;;;;;;2.85;2.33;;;;;;;3.08;50.16;94232.75;5120987;27;20203;-77
2023/03/12 04:23:45;;;;;;;2.63;2.40;;;;;;;3.12;50.66;94241.91;5121450;27;20192;-77
2023/03/12 04:26:13;;;;;;;2.50;2.40;;;;;;;3.09;50.75;94239.03;5121762;27;20203;-77
2023/03/12 04:28:40;;;;;;;2.40;2.20;;;;;;;3.08;50.25;94242.84;5121309;27;20202;-77
2023/03/12 04:31:08;;;;;;;2.70;2.50;;;;;;;3.01;50.17;94246.06;5121031;27;20225;-77
2023/03/12 04:33:37;;;;;;;2.45;2.20;;;;;;;2.95;50.34;94249.31;5121436;27;20191;-77
2023/03/12 04:36:05;;;;;;;3.00;2.70;;;;;;;2.92;50.83;94258.94;5121698;27;20199;-77
2023/03/12 04:38:32;;;;;;;2.60;2.40;;;;;;;2.92;50.77;94256.19;5121441;27;20218;-77
2023/03/12 04:40:59;;;;;;;2.50;2.30;;;;;;;2.95;50.71;94257.50;5120824;27;20198;-77
2023/03/12 04:43:28;;;;;;;2.70;2.50;;;;;;;2.90;50.52;94266.59;5120816;27;20252;-77
2023/03/12 04:45:56;;;;;;;2.45;2.25;;;;;;;2.88;50.56;94264.22;5120574;27;20199;-77
2023/03/12 04:48:23;;;;;;;2.90;2.70;;;;;;;2.92;50.81;94267.09;5138907;27;20194;-77
2023/03/12 04:50:50;;;;;;;2.60;2.40;;;;;;;2.95;50.97;94273.84;5120770;27;20206;-77
2023/03/12 04:53:17;;;;;;;2.83;2.63;;;;;;;2.97;50.72;94272.38;5138362;27;20613;-77
2023/03/12 04:55:44;;;;;;;2.70;2.50;;;;;;;2.96;51.20;94276.22;5138610;27;20265;-77
2023/03/12 04:58:11;;;;;;;2.85;2.65;;;;;;;2.95;50.89;94280.06;5120482;27;20211;-77
2023/03/12 05:00:41;;;;;;;2.70;2.50;;;;;;;2.95;51.24;94282.81;5120113;27;20206;-77
2023/03/12 05:03:08;;;;;;;3.08;2.40;;;;;;;2.95;51.16;94287.44;5138417;27;20183;-77
2023/03/12 05:05:35;;;;;;;2.50;2.30;;;;;;;2.91;51.38;94291.94;5120164;27;20203;-77
2023/03/12 05:08:02;;;;;;;2.45;2.35;;;;;;;2.93;51.07;94289.69;5138016;27;20259;-77
2023/03/12 05:10:28;;;;;;;2.80;2.50;;;;;;;2.93;51.77;94290.47;5119887;27;20647;-77
2023/03/12 05:12:55;;;;;;;3.10;2.90;;;;;;;2.96;51.30;94302.66;5119362;27;20203;-77
2023/03/12 05:15:23;;;;;;;2.70;2.50;;;;;;;2.93;51.25;94306.03;5120050;27;20190;-77
2023/03/12 05:17:51;;;;;;;2.95;2.75;;;;;;;2.91;51.41;94306.38;5120491;27;20229;-77
2023/03/12 05:20:19;;;;;;;2.85;2.65;;;;;;;2.95;51.19;94299.16;5138182;27;20372;-77
2023/03/12 05:22:46;;;;;;;3.38;3.13;;;;;;;2.98;51.45;94311.28;5119692;27;20203;-77
2023/03/12 05:25:13;;;;;;;3.17;2.97;;;;;;;2.97;51.71;94309.69;5119837;27;20520;-77
2023/03/12 05:27:40;;;;;;;3.42;3.13;;;;;;;2.98;51.54;94309.41;5120417;27;20199;-77
2023/03/12 05:30:08;;;;;;;3.28;2.97;;;;;;;3.02;51.23;94312.28;5137644;27;20206;-77
2023/03/12 05:32:35;;;;;;;4.30;3.10;;;;;;;3.05;51.57;94319.78;5119442;27;20223;-77
2023/03/12 05:35:05;;;;;;;2.72;2.60;;;;;;;3.02;51.30;94312.28;5137444;27;20195;-77
2023/03/12 05:37:32;;;;;;;3.13;2.78;;;;;;;3.05;51.21;94317.06;5119534;27;20215;-77
2023/03/12 05:39:59;;;;;;;3.25;2.63;;;;;;;3.05;51.57;94323.31;5137690;27;20572;-77
2023/03/12 05:42:27;;;;;;;3.70;3.45;;;;;;;3.06;52.21;94324.13;5119789;27;20662;-77
2023/03/12 05:44:53;;;;;;;4.53;4.22;;;;;;;3.03;51.97;94327.50;5137557;27;20206;-77
2023/03/12 05:47:20;;;;;;;4.30;3.90;;;;;;;3.07;52.61;94339.34;5119357;27;20191;-77
2023/03/12 05:49:47;;;;;;;3.88;3.58;;;;;;;3.06;52.23;94337.75;5119094;27;20206;-77
2023/03/12 05:52:16;;;;;;;3.00;2.80;;;;;;;3.10;52.59;94338.69;5119136;27;20199;-77
2023/03/12 05:54:43;;;;;;;3.50;2.85;;;;;;;3.08;52.40;94336.28;5119427;27;20191;-77
2023/03/12 05:57:10;;;;;;;2.72;2.53;;;;;;;3.08;52.29;94347.19;5119311;27;20197;-77
2023/03/12 05:59:36;;;;;;;2.83;2.63;;;;;;;3.17;51.87;94340.94;5119641;27;20205;-77
2023/03/12 06:02:03;;;;;;;2.70;2.40;;;;;;;3.12;50.91;94344.59;5137012;27;20187;-77
2023/03/12 06:04:30;;;;;;;2.70;2.38;;;;;;;3.16;50.54;94350.22;5137020;27;20206;-77
2023/03/12 06:06:57;;;;;;;2.90;2.70;;;;;;;3.23;50.37;94351.34;5137277;27;20205;-77
2023/03/12 06:09:25;;;;;;;3.03;2.83;;;;;;;3.26;50.62;94352.59;5119298;27;20195;-77
2023/03/12 06:11:53;;;;;;;4.13;3.65;;;;;;;3.25;50.52;94364.63;5119259;27;20286;-77
2023/03/12 06:14:20;;;;;;;3.20;3.00;;;;;;;3.29;50.43;94355.47;5136972;27;20187;-77
2023/03/12 06:16:47;;;;;;;3.22;2.85;;;;;;;3.36;51.01;94365.91;5119022;27;20198;-77
2023/03/12 06:19:14;;;;;;;3.42;2.80;;;;;;;3.39;51.07;94365.25;5118547;27;20642;-77
2023/03/12 06:21:42;;;;;;;2.90;2.60;;;;;;;3.34;50.86;94368.97;5137208;27;20206;-77
2023/03/12 06:24:10;;;;;;;2.95;2.75;;;;;;;3.41;51.56;94364.91;5118326;27;20202;-77
2023/03/12 06:26:39;;;;;;;2.85;2.65;;;;;;;3.43;51.16;94373.59;5118872;27;20529;-77
2023/03/12 06:29:06;;;;;;;3.83;3.42;;;;;;;3.41;50.89;94378.53;5136752;27;20182;-77
2023/03/12 06:31:32;;;;;;;4.47;3.38;;;;;;;3.46;51.84;94383.84;5118684;27;20194;-77
2023/03/12 06:33:59;;;;;;;3.00;2.80;;;;;;;3.54;51.62;94394.72;5118824;27;20209;-76
2023/03/12 06:36:26;;;;;;;2.92;2.60;;;;;;;3.53;51.50;94395.84;5118721;27;20200;-77
2023/03/12 06:38:53;;;;;;;2.55;2.35;;;;;;;3.51;50.36;94406.25;5136643;27;20203;-77
2023/03/12 06:41:20;;;;;;;2.92;2.72;;;;;;;3.57;50.70;94415.88;5136627;27;20183;-77
2023/03/12 06:43:48;;;;;;;3.17;2.97;;;;;;;3.56;50.88;94417.03;5114916;28;20322;-77
2023/03/12 06:46:17;;;;;;;2.95;2.60;;;;;;;3.56;51.45;94413.50;5116318;28;20206;-77
2023/03/12 06:48:45;;;;;;;2.80;2.60;;;;;;;3.62;50.76;94417.63;5114861;28;20191;-77
2023/03/12 06:51:13;;;;;;;3.25;2.70;;;;;;;3.63;49.60;94419.22;5115739;28;20187;-77
2023/03/12 06:53:40;;;;;;;3.15;2.85;;;;;;;3.57;50.05;94432.25;5115216;28;20206;-76
2023/03/12 06:56:07;;;;;;;3.05;2.80;;;;;;;3.55;50.07;94444.59;5115624;28;20596;-77
2023/03/12 06:58:35;;;;;;;2.97;2.67;;;;;;;3.48;50.26;94438.81;5114931;28;20712;-77
2023/03/12 07:01:03;;;;;;;2.40;2.20;;;;;;;3.49;49.63;94438.53;5114895;28;20627;-76
2023/03/12 07:03:30;;;;;;;2.90;2.60;;;;;;;3.55;48.84;94450.03;5114696;28;20282;-77
2023/03/12 07:05:58;;;;;;;2.25;2.15;;;;;;;3.58;48.31;94452.13;5115804;28;20184;-76
2023/03/12 07:08:28;;;;;;;2.50;2.30;;;;;;;3.62;48.34;94453.88;5114845;28;20538;-76
2023/03/12 07:10:55;;;;;;;2.42;2.28;;;;;;;3.68;48.33;94454.53;5115673;28;20208;-76
2023/03/12 07:13:22;;;;;;;3.05;2.83;;;;;;;3.78;48.18;94469.75;5114770;28;20196;-76
2023/03/12 07:15:49;;;;;;;2.83;2.60;;;;;;;3.71;46.85;94464.00;5114601;28;20196;-77
2023/03/12 07:18:18;;;;;;;3.47;3.17;;;;;;;3.81;47.95;94467.19;5115511;28;20210;-76
2023/03/12 07:20:46;;;;;;;2.92;2.63;;;;;;;3.86;47.60;94463.47;5097471;28;20223;-76
2023/03/12 07:23:13;;;;;;;2.40;2.30;;;;;;;3.93;47.46;94482.88;5097078;28;20199;-76
2023/03/12 07:25:41;;;;;;;2.63;2.42;;;;;;;3.93;47.36;94484.81;5097515;28;20199;-76
2023/03/12 07:28:09;;;;;;;2.70;2.50;;;;;;;4.05;47.86;94483.00;5115269;28;20638;-76
2023/03/12 07:30:36;;;;;;;2.88;2.67;;;;;;;4.23;48.06;94482.94;5097537;28;20222;-77
2023/03/12 07:33:03;;;;;;;2.60;2.40;;;;;;;4.34;47.54;94489.63;5097125;28;20200;-76
2023/03/12 07:35:32;;;;;;;3.85;2.70;;;;;;;4.44;47.00;94486.53;5099123;28;20206;-77
2023/03/12 07:37:59;;;;;;;3.10;2.90;;;;;;;4.50;46.93;94487.16;5119271;28;20218;-76
2023/03/12 07:40:26;;;;;;;2.40;2.20;;;;;;;4.39;47.16;94486.72;5101547;28;20199;-77
2023/03/12 07:42:53;;;;;;;2.80;2.60;;;;;;;4.52;47.59;94491.16;5101251;28;20235;-76
2023/03/12 07:45:21;;;;;;;2.47;2.30;;;;;;;4.60;46.25;94484.06;5101563;28;20297;-76
2023/03/12 07:47:48;;;;;;;2.55;2.35;;;;;;;4.69;45.79;94497.69;5101670;28;20195;-76
2023/03/12 07:50:15;;;;;;;2.40;2.20;;;;;;;4.68;45.94;94507.78;5101896;28;20199;-77
2023/03/12 07:52:44;;;;;;;2.90;2.63;;;;;;;4.77;44.96;94510.50;5119459;28;20180;-77
2023/03/12 07:55:11;;;;;;;2.40;2.30;;;;;;;4.75;43.60;94505.34;5118897;28;20191;-77
2023/03/12 07:57:38;;;;;;;2.55;2.35;;;;;;;4.78;43.15;94504.69;5119271;28;20188;-76
2023/03/12 08:00:09;;;;;;;2.67;2.50;;;;;;;4.70;43.47;94497.34;5100841;28;20212;-77
2023/03/12 08:02:36;;;;;;;2.70;2.50;;;;;;;4.72;42.86;94502.47;5119262;28;20207;-76
2023/03/12 08:05:03;;;;;;;2.78;2.58;;;;;;;4.74;43.08;94501.00;5101008;28;20287;-76
2023/03/12 08:07:31;;;;;;;3.08;2.88;;;;;;;4.78;43.43;94506.63;5101347;28;20199;-76
2023/03/12 08:09:59;;;;;;;2.63;2.30;;;;;;;4.78;42.82;94501.94;5101472;28;20285;-76
2023/03/12 08:12:26;;;;;;;3.05;2.80;;;;;;;4.86;44.58;94496.75;5101093;28;20227;-76
2023/03/12 08:14:53;;;;;;;2.90;2.67;;;;;;;5.05;44.41;94502.63;5101270;28;20209;-76
2023/03/12 08:17:20;;;;;;;3.17;2.83;;;;;;;4.90;43.40;94506.72;5119060;28;20179;-76
2023/03/12 08:19:47;;;;;;;2.90;2.60;;;;;;;4.98;43.95;94516.00;5101351;28;20216;-77
2023/03/12 08:22:14;;;;;;;2.90;2.70;;;;;;;5.08;43.88;94512.84;5101415;28;20184;-77
2023/03/12 08:24:41;;;;;;;2.88;2.67;;;;;;;5.14;42.47;94525.22;5101179;28;20206;-77
2023/03/12 08:27:10;;;;;;;2.75;2.55;;;;;;;5.22;42.57;94513.41;5100748;28;20188;-77
2023/03/12 08:29:38;;;;;;;3.10;2.90;;;;;;;5.39;43.03;94512.50;5101197;28;20199;-76
2023/03/12 08:32:05;;;;;;;2.70;2.50;;;;;;;5.40;41.86;94518.75;5100924;28;20196;-77
2023/03/12 08:34:32;;;;;;;3.13;2.75;;;;;;;5.48;41.74;94513.25;5083792;28;20197;-77
2023/03/12 08:36:59;;;;;;;2.45;2.30;;;;;;;5.58;42.91;94528.44;5100635;28;20287;-76
2023/03/12 08:39:26;;;;;;;2.90;2.60;;;;;;;5.64;42.92;94520.84;5118110;28;20618;-76
2023/03/12 08:41:54;;;;;;;2.80;2.60;;;;;;;5.77;42.17;94508.78;5100415;28;20208;-77
2023/03/12 08:44:22;;;;;;;3.00;2.80;;;;;;;5.88;42.41;94523.69;5100387;28;20555;-76
2023/03/12 08:46:49;;;;;;;2.63;2.42;;;;;;;5.89;41.79;94538.16;5098759;28;20192;-76
2023/03/12 08:49:16;;;;;;;2.40;2.20;;;;;;;6.02;42.49;94546.09;5099794;28;20206;-76
2023/03/12 08:51:43;;;;;;;2.72;2.53;;;;;;;6.20;41.87;94541.25;5118034;28;20237;-77
2023/03/12 08:54:10;;;;;;;2.58;2.40;;;;;;;6.26;39.88;94534.44;5100155;28;20192;-76
2023/03/12 08:56:40;;;;;;;2.63;2.42;;;;;;;6.26;39.68;94531.69;5099818;28;20191;-77
2023/03/12 08:59:07;;;;;;;2.63;2.42;;;;;;;6.40;39.83;94544.28;5099756;28;20216;-76
2023/03/12 09:01:36;;;;;;;2.72;2.53;;;;;;;6.49;41.83;94553.19;5099957;28;20199;-77
2023/03/12 09:04:03;;;;;;;2.53;2.33;;;;;;;6.62;39.67;94543.06;5099819;28;20211;-77
2023/03/12 09:06:30;;;;;;;2.85;2.65;;;;;;;6.56;40.30;94558.91;5099910;28;20208;-77
2023/03/12 09:09:03;;;;;;;2.55;2.35;;;;;;;6.55;39.02;94540.88;5117706;28;20270;-77
2023/03/12 09:11:31;;;;;;;2.67;2.47;;;;;;;6.51;39.73;94553.66;5117070;28;20278;-77
2023/03/12 09:13:57;;;;;;;3.00;2.80;;;;;;;6.61;40.44;94541.44;5099667;28;20203;-77
2023/03/12 09:16:24;;;;;;;2.80;2.60;;;;;;;6.83;39.96;94537.50;5099665;28;20573;-76
2023/03/12 09:18:53;;;;;;;2.88;2.65;;;;;;;6.98;39.17;94537.63;5117436;28;20203;-77
2023/03/12 09:21:21;;;;;;;2.63;2.42;;;;;;;7.12;40.09;94536.47;5099598;28;20194;-76
2023/03/12 09:23:48;;;;;;;2.80;2.60;;;;;;;7.22;40.47;94531.31;5099668;28;20548;-77
2023/03/12 09:26:15;;;;;;;2.90;2.70;;;;;;;7.17;39.14;94544.47;5117161;28;20231;-76
2023/03/12 09:28:43;;;;;;;3.00;2.80;;;;;;;7.13;40.07;94535.31;5099309;28;20195;-77
2023/03/12 09:31:10;;;;;;;2.50;2.30;;;;;;;7.28;39.39;94542.84;5099167;28;20191;-77
2023/03/12 09:33:37;;;;;;;2.33;2.10;;;;;;;7.40;39.25;94533.78;5116083;28;20196;-77
2023/03/12 09:36:07;;;;;;;2.78;2.58;;;;;;;7.61;40.24;94517.97;5116254;28;20208;-76
2023/03/12 09:38:34;;;;;;;2.60;2.40;;;;;;;7.69;40.05;94524.47;5116203;28;20203;-77
2023/03/12 09:41:02;;;;;;;2.58;2.40;;;;;;;7.62;37.64;94541.53;5117164;28;20180;-77
2023/03/12 09:43:34;;;;;;;2.63;2.42;;;;;;;7.55;37.76;94540.50;5116158;28;20235;-76
2023/03/12 09:46:02;;;;;;;2.80;2.60;;;;;;;7.46;38.90;94546.16;5116197;28;20199;-76
2023/03/12 09:48:34;;;;;;;2.80;2.60;;;;;;;7.65;40.36;94538.09;5116697;28;20205;-76
2023/03/12 09:51:05;;;;;;;2.78;2.58;;;;;;;8.04;39.07;94534.88;5117035;28;20599;-76
2023/03/12 09:53:37;;;;;;;2.22;2.13;;;;;;;8.10;38.35;94525.25;5116282;28;20195;-77
2023/03/12 09:56:08;;;;;;;2.90;2.70;;;;;;;8.25;38.65;94527.25;5116590;28;20172;-76
2023/03/12 09:58:37;;;;;;;2.50;2.30;;;;;;;8.40;39.29;94531.19;5115272;28;20203;-76
2023/03/12 10:01:13;;;;;;;2.25;2.15;;;;;;;8.76;36.84;94532.13;5115294;28;20589;-76
2023/03/12 10:03:55;;;;;;;2.50;2.30;;;;;;;8.96;38.21;94544.78;5116121;28;20576;-76
2023/03/12 10:06:24;;;;;;;2.85;2.65;;;;;;;9.32;37.86;94532.69;5115941;28;20191;-76
2023/03/12 10:09:04;;;;;;;2.67;2.40;;;;;;;9.27;35.76;94532.97;5115752;28;20393;-77
2023/03/12 10:11:39;;;;;;;2.38;2.17;;;;;;;8.99;35.67;94527.59;5115837;28;20192;-77
2023/03/12 10:14:14;;;;;;;3.00;2.70;;;;;;;9.34;37.54;94518.59;5115317;28;20256;-77
2023/03/12 10:16:52;;;;;;;2.40;2.30;;;;;;;9.77;35.71;94517.59;5115573;28;20282;-77
2023/03/12 10:19:55;;;;;;;2.22;2.10;;;;;;;9.63;34.06;94514.53;5115164;28;20264;-77
2023/03/12 10:22:33;;;;;;;2.28;2.17;;;;;;;9.55;34.64;94521.81;5116492;28;20179;-77
2023/03/12 10:25:08;;;;;;;2.47;2.28;;;;;;;9.51;34.78;94518.16;5115047;28;20201;-77
2023/03/12 10:27:36;;;;;;;2.40;2.20;;;;;;;9.86;37.78;94517.34;5115708;28;20199;-77
2023/03/12 10:30:14;;;;;;;2.50;2.30;;;;;;;9.77;34.59;94514.81;5116109;28;20283;-77
2023/03/12 10:32:42;;;;;;;2.10;2.00;;;;;;;9.67;35.66;94518.16;5115933;28;20176;-77
2023/03/12 10:35:16;;;;;;;2.10;2.00;;;;;;;9.70;36.55;94522.13;5115097;28;20203;-77
2023/03/12 10:37:45;;;;;;;2.22;2.05;;;;;;;10.02;33.57;94528.31;5115588;28;20210;-77
2023/03/12 10:40:16;;;;;;;2.00;1.90;;;;;;;10.11;33.25;94515.91;5115981;28;20206;-77
2023/03/12 10:42:43;;;;;;;2.38;2.10;;;;;;;10.55;34.26;94518.34;5114735;28;20223;-77
2023/03/12 10:45:26;;;;;;;2.10;2.00;;;;;;;10.91;32.04;94520.94;5114909;28;20219;-77
2023/03/12 10:47:56;;;;;;;2.10;2.00;;;;;;;10.72;33.78;94522.59;5115173;28;20191;-76
2023/03/12 10:50:24;;;;;;;2.33;2.13;;;;;;;11.00;33.46;94525.06;5114986;28;20192;-76
2023/03/12 10:52:53;;;;;;;2.28;2.15;;;;;;;11.38;32.73;94528.03;5115062;28;20199;-76
2023/03/12 10:55:25;;;;;;;1.92;1.83;;;;;;;11.40;33.35;94520.97;5114928;28;20268;-76
2023/03/12 10:57:52;;;;;;;2.22;2.13;;;;;;;11.59;33.54;94522.81;5114936;28;20198;-76
2023/03/12 11:00:21;;;;;;;2.50;2.30;;;;;;;11.81;31.89;94515.63;5114715;28;20215;-77
2023/03/12 11:02:57;;;;;;;2.15;2.05;;;;;;;11.71;31.20;94513.50;5114571;28;20199;-77
2023/03/12 11:05:25;;;;;;;2.47;2.28;;;;;;;11.56;31.88;94516.06;5115030;28;20331;-77
2023/03/12 11:07:52;;;;;;;2.60;2.40;;;;;;;11.56;30.93;94506.97;5115755;28;20194;-77
2023/03/12 11:10:26;;;;;;;2.17;2.00;;;;;;;11.29;32.23;94508.94;5114928;28;20191;-76
2023/03/12 11:12:59;;;;;;;2.10;2.00;;;;;;;11.09;31.12;94514.56;5114551;28;20184;-77
2023/03/12 11:15:28;;;;;;;2.33;2.13;;;;;;;11.19;32.39;94507.63;5114877;28;20199;-77
2023/03/12 11:18:19;;;;;;;2.10;2.00;;;;;;;11.64;31.21;94496.84;5115091;28;20199;-76
2023/03/12 11:20:46;;;;;;;2.20;2.10;;;;;;;11.76;29.70;94500.19;5114575;28;20226;-77
2023/03/12 11:23:14;;;;;;;2.22;2.13;;;;;;;11.70;30.09;94498.91;5114485;28;20192;-77
2023/03/12 11:25:43;;;;;;;2.10;2.00;;;;;;;11.71;30.57;94505.22;5114781;28;20624;-77
2023/03/12 11:28:17;;;;;;;2.15;2.05;;;;;;;12.05;30.60;94511.59;5114215;28;20196;-76
2023/03/12 11:30:44;;;;;;;3.40;3.10;;;;;;;12.28;30.46;94495.72;5114666;28;20199;-76
2023/03/12 11:33:11;;;;;;;2.55;2.35;;;;;;;12.60;30.10;94502.75;5114149;28;20201;-76
2023/03/12 11:35:44;;;;;;;2.00;1.90;;;;;;;12.74;29.89;94498.19;5114533;28;20245;-76
2023/03/12 11:38:17;;;;;;;2.78;2.58;;;;;;;12.91;29.57;94498.72;5114291;28;20210;-76
2023/03/12 11:40:56;;;;;;;2.63;2.42;;;;;;;13.17;29.19;94492.22;5114131;28;20234;-77
2023/03/12 11:43:36;;;;;;;2.30;2.00;;;;;;;13.28;27.79;94495.09;5116024;28;20233;-76
2023/03/12 11:46:12;;;;;;;2.22;2.05;;;;;;;13.41;28.74;94493.63;5114451;28;20626;-77
2023/03/12 11:48:45;;;;;;;3.75;2.60;;;;;;;13.39;26.70;94484.88;5114502;28;20256;-76